createdAt,value
2023-04-01T00:00:31.619Z,91847.94
2023-04-01T00:02:58.705Z,91792.56
2023-04-01T00:05:28.198Z,91740.34
2023-04-01T00:07:54.739Z,91687.56
2023-04-01T00:10:21.362Z,91643.72
2023-04-01T00:12:47.737Z,91633.28
2023-04-01T00:15:14.147Z,91602.97
2023-04-01T00:17:40.539Z,91584.19
2023-04-01T00:20:08.859Z,91582.09
2023-04-01T00:22:35.658Z,91586.81
2023-04-01T00:25:02.137Z,91609.78
2023-04-01T00:27:28.497Z,91618.16
2023-04-01T00:29:54.861Z,91640.63
2023-04-01T00:32:21.266Z,91653.94
2023-04-01T00:34:51.324Z,91666.72
2023-04-01T00:37:17.872Z,91686.03
2023-04-01T00:39:45.243Z,91693.38
2023-04-01T00:42:12.056Z,91721.06
2023-04-01T00:44:38.973Z,91750.84
2023-04-01T00:47:05.684Z,91810.16
2023-04-01T00:49:34.743Z,91873.63
2023-04-01T00:52:01.285Z,91946.78
2023-04-01T00:54:28.053Z,92054.44
2023-04-01T00:57:00.685Z,92199.47
2023-04-01T00:59:38.515Z,92348.16
2023-04-01T01:02:07.252Z,92459.41
2023-04-01T01:04:34.477Z,92522.88
2023-04-01T01:07:19.133Z,92565.41
2023-04-01T01:10:17.891Z,92573.25
2023-04-01T01:13:03.185Z,92564.28
2023-04-01T01:15:42.383Z,92630.16
2023-04-01T01:18:24.517Z,92643.69
2023-04-01T01:20:56.916Z,92657.00
2023-04-01T01:24:02.237Z,92723.06
2023-04-01T01:26:47.217Z,92768.50
2023-04-01T01:29:32.439Z,92829.19
2023-04-01T01:32:17.106Z,92831.22
2023-04-01T01:35:18.217Z,92804.44
2023-04-01T01:37:44.669Z,92844.97
2023-04-01T01:40:12.557Z,92895.38
2023-04-01T01:42:40.805Z,92916.28
2023-04-01T01:45:07.734Z,92902.66
2023-04-01T01:47:35.019Z,92849.84
2023-04-01T01:50:02.173Z,92810.09
2023-04-01T01:52:29.447Z,92757.84
2023-04-01T01:54:57.142Z,92682.56
2023-04-01T01:57:25.682Z,92604.47
2023-04-01T01:59:52.851Z,92503.84
2023-04-01T02:02:19.223Z,92404.84
2023-04-01T02:04:46.083Z,92354.66
2023-04-01T02:07:19.532Z,92331.75
2023-04-01T02:09:46.193Z,92327.78
2023-04-01T02:12:13.922Z,92308.47
2023-04-01T02:15:01.629Z,92286.31
2023-04-01T02:17:29.155Z,92263.03
2023-04-01T02:20:00.214Z,92214.47
2023-04-01T02:22:34.636Z,92185.50
2023-04-01T02:25:05.617Z,92154.66
2023-04-01T02:27:32.175Z,92128.53
2023-04-01T02:29:58.998Z,92086.75
2023-04-01T02:32:25.508Z,92040.00
2023-04-01T02:34:52.143Z,92008.66
2023-04-01T02:37:18.589Z,91957.97
2023-04-01T02:39:45.049Z,91905.75
2023-04-01T02:42:11.452Z,91846.75
2023-04-01T02:44:40.620Z,91792.47
2023-04-01T02:47:07.094Z,91743.88
2023-04-01T02:49:33.591Z,91714.66
2023-04-01T02:52:00.254Z,91689.06
2023-04-01T02:54:26.628Z,91659.31
2023-04-01T02:56:53.081Z,91624.34
2023-04-01T02:59:19.537Z,91597.69
2023-04-01T03:01:45.898Z,91589.59
2023-04-01T03:04:12.257Z,91562.72
2023-04-01T03:06:38.651Z,91530.34
2023-04-01T03:09:05.180Z,91499.53
2023-04-01T03:11:31.556Z,91467.16
2023-04-01T03:13:58.012Z,91436.09
2023-04-01T03:16:24.527Z,91418.63
2023-04-01T03:18:53.644Z,91408.69
2023-04-01T03:21:22.739Z,91370.06
2023-04-01T03:23:49.149Z,91337.69
2023-04-01T03:26:16.064Z,91319.16
2023-04-01T03:28:42.445Z,91301.16
2023-04-01T03:31:08.906Z,91276.63
2023-04-01T03:33:35.381Z,91262.53
2023-04-01T03:36:01.818Z,91169.63
2023-04-01T03:38:28.216Z,91091.31
2023-04-01T03:40:54.552Z,91036.03
2023-04-01T03:43:21.409Z,90982.25
2023-04-01T03:45:48.241Z,90885.19
2023-04-01T03:48:15.452Z,90814.25
2023-04-01T03:50:42.188Z,90750.06
2023-04-01T03:53:08.574Z,90657.69
2023-04-01T03:55:36.495Z,90542.88
2023-04-01T03:58:03.295Z,90486.03
2023-04-01T04:00:32.689Z,90411.44
2023-04-01T04:02:59.362Z,90379.34
2023-04-01T04:05:26.030Z,90189.19
2023-04-01T04:07:52.720Z,90119.06
2023-04-01T04:10:19.158Z,90067.66
2023-04-01T04:12:45.604Z,90021.28
2023-04-01T04:15:12.228Z,89976.47
2023-04-01T04:17:38.715Z,89931.66
2023-04-01T04:20:05.715Z,89905.09
2023-04-01T04:22:32.048Z,89874.25
2023-04-01T04:24:58.593Z,89824.25
2023-04-01T04:27:25.137Z,89803.38
2023-04-01T04:29:51.671Z,89778.09
2023-04-01T04:32:18.013Z,89768.41
2023-04-01T04:34:44.577Z,89772.09
2023-04-01T04:37:10.962Z,89756.00
2023-04-01T04:39:37.504Z,89758.59
2023-04-01T04:42:03.942Z,89742.94
2023-04-01T04:44:30.453Z,89729.91
2023-04-01T04:46:58.338Z,89734.66
2023-04-01T04:49:25.484Z,89728.69
2023-04-01T04:51:53.245Z,89720.53
2023-04-01T04:54:19.775Z,89712.25
2023-04-01T04:56:46.160Z,89692.91
2023-04-01T04:59:13.433Z,89613.94
2023-04-01T05:01:40.009Z,89602.72
2023-04-01T05:04:06.706Z,89588.59
2023-04-01T05:06:33.064Z,89584.47
2023-04-01T05:08:59.638Z,89571.44
2023-04-01T05:11:27.019Z,89563.59
2023-04-01T05:13:53.578Z,89532.31
2023-04-01T05:16:20.776Z,89510.38
2023-04-01T05:18:47.794Z,89497.81
2023-04-01T05:21:14.684Z,89479.88
2023-04-01T05:23:41.403Z,89450.09
2023-04-01T05:26:14.892Z,89426.31
2023-04-01T05:28:41.407Z,89418.50
2023-04-01T05:31:08.165Z,89360.06
2023-04-01T05:33:34.641Z,89338.59
2023-04-01T05:36:14.741Z,89302.97
2023-04-01T05:38:41.625Z,89262.47
2023-04-01T05:41:08.163Z,89225.63
2023-04-01T05:43:37.234Z,89136.19
2023-04-01T05:46:03.828Z,89091.97
2023-04-01T05:48:30.299Z,89080.03
2023-04-01T05:50:56.701Z,89085.69
2023-04-01T05:53:23.244Z,89071.91
2023-04-01T05:55:49.648Z,89075.41
2023-04-01T05:58:16.085Z,89101.91
2023-04-01T06:00:42.684Z,89098.53
2023-04-01T06:03:09.314Z,89097.91
2023-04-01T06:05:41.228Z,89098.03
2023-04-01T06:08:13.144Z,89101.84
2023-04-01T06:11:14.503Z,89112.28
2023-04-01T06:14:06.768Z,89112.75
2023-04-01T06:16:37.196Z,89129.59
2023-04-01T06:19:26.768Z,89147.09
2023-04-01T06:22:11.721Z,89141.25
2023-04-01T06:24:57.699Z,89134.94
2023-04-01T06:27:30.548Z,89128.31
2023-04-01T06:30:30.969Z,89124.78
2023-04-01T06:33:07.409Z,89099.56
2023-04-01T06:35:39.589Z,89084.78
2023-04-01T06:38:30.998Z,89090.56
2023-04-01T06:41:17.178Z,89089.16
2023-04-01T06:43:58.656Z,89085.47
2023-04-01T06:46:48.080Z,89088.84
2023-04-01T06:49:48.725Z,89101.28
2023-04-01T06:52:18.240Z,89147.06
2023-04-01T06:55:03.075Z,89163.84
2023-04-01T06:57:35.494Z,89196.97
2023-04-01T07:00:04.267Z,89213.53
2023-04-01T07:02:37.819Z,89243.34
2023-04-01T07:05:04.459Z,89263.41
2023-04-01T07:07:44.146Z,89308.28
2023-04-01T07:10:14.098Z,89352.94
2023-04-01T07:12:52.632Z,89402.84
2023-04-01T07:15:37.785Z,89476.44
2023-04-01T07:18:35.032Z,89560.94
2023-04-01T07:21:04.428Z,89645.63
2023-04-01T07:23:34.118Z,89714.47
2023-04-01T07:26:01.888Z,89766.28
2023-04-01T07:28:31.274Z,89803.81
2023-04-01T07:31:04.139Z,89824.13
2023-04-01T07:33:58.739Z,89844.09
2023-04-01T07:36:43.227Z,89844.72
2023-04-01T07:39:19.665Z,89857.50
2023-04-01T07:41:48.936Z,89882.41
2023-04-01T07:44:30.428Z,89921.94
2023-04-01T07:47:06.166Z,89964.69
2023-04-01T07:49:41.331Z,90034.53
2023-04-01T07:52:21.542Z,90132.66
2023-04-01T07:54:52.006Z,90229.66
2023-04-01T07:57:36.850Z,90370.88
2023-04-01T08:00:09.247Z,90548.84
2023-04-01T08:02:40.114Z,90715.59
2023-04-01T08:05:19.959Z,90918.53
2023-04-01T08:07:55.301Z,91062.81
2023-04-01T08:10:31.214Z,91186.84
2023-04-01T08:13:06.817Z,91341.72
2023-04-01T08:15:53.840Z,91445.84
2023-04-01T08:18:32.652Z,91657.94
2023-04-01T08:21:03.798Z,91946.41
2023-04-01T08:23:47.105Z,92219.69
2023-04-01T08:26:19.656Z,92321.31
2023-04-01T08:28:55.385Z,92363.94
2023-04-01T08:31:24.825Z,92431.59
2023-04-01T08:33:51.400Z,92364.84
2023-04-01T08:36:20.358Z,92430.25
2023-04-01T08:38:49.944Z,92483.44
2023-04-01T08:41:50.776Z,92540.56
2023-04-01T08:44:20.320Z,92514.69
2023-04-01T08:47:28.422Z,92575.97
2023-04-01T08:50:45.608Z,92729.50
2023-04-01T08:53:42.969Z,92790.09
2023-04-01T08:56:16.409Z,92733.06
2023-04-01T08:59:07.938Z,92733.56
2023-04-01T09:01:56.764Z,92699.34
2023-04-01T09:04:36.483Z,92746.41
2023-04-01T09:07:15.200Z,92858.13
2023-04-01T09:09:45.900Z,92986.50
2023-04-01T09:12:46.719Z,93065.28
2023-04-01T09:15:50.827Z,93324.16
2023-04-01T09:18:38.428Z,93405.09
2023-04-01T09:21:17.249Z,93444.53
2023-04-01T09:23:58.561Z,93466.31
2023-04-01T09:26:45.624Z,93335.47
2023-04-01T09:29:18.245Z,93432.00
2023-04-01T09:31:49.131Z,93507.00
2023-04-01T09:34:45.866Z,93676.97
2023-04-01T09:37:27.857Z,93839.78
2023-04-01T09:40:06.132Z,94091.03
2023-04-01T09:42:42.614Z,94158.56
2023-04-01T09:45:19.051Z,94204.34
2023-04-01T09:48:02.276Z,94473.00
2023-04-01T09:50:51.987Z,94634.78
2023-04-01T09:53:36.885Z,94707.84
2023-04-01T09:56:25.567Z,94338.66
2023-04-01T09:59:16.917Z,94267.66
2023-04-01T10:02:04.894Z,94128.50
2023-04-01T10:04:45.812Z,94124.50
2023-04-01T10:07:15.296Z,94040.19
2023-04-01T10:10:19.015Z,93831.72
2023-04-01T10:12:51.785Z,94049.09
2023-04-01T10:15:24.354Z,94305.97
2023-04-01T10:17:53.818Z,94384.44
2023-04-01T10:20:37.471Z,94470.13
2023-04-01T10:23:10.079Z,94673.38
2023-04-01T10:25:51.763Z,94777.06
2023-04-01T10:28:30.419Z,94792.03
2023-04-01T10:31:18.658Z,94858.53
2023-04-01T10:34:23.558Z,94866.50
2023-04-01T10:36:57.988Z,94820.50
2023-04-01T10:40:09.049Z,94735.00
2023-04-01T10:42:49.766Z,94745.25
2023-04-01T10:45:31.625Z,94814.78
2023-04-01T10:48:45.455Z,94786.34
2023-04-01T10:51:17.858Z,94843.56
2023-04-01T10:53:51.099Z,94678.91
2023-04-01T10:56:26.616Z,94529.28
2023-04-01T10:59:11.356Z,94530.50
2023-04-01T11:02:11.584Z,94246.72
2023-04-01T11:04:59.959Z,94166.91
2023-04-01T11:07:52.916Z,93982.50
2023-04-01T11:10:25.706Z,93928.34
2023-04-01T11:13:13.498Z,93806.66
2023-04-01T11:16:13.490Z,93755.16
2023-04-01T11:18:48.864Z,93599.59
2023-04-01T11:21:56.893Z,93522.94
2023-04-01T11:24:38.242Z,93640.75
2023-04-01T11:27:39.739Z,93604.09
2023-04-01T11:30:38.749Z,93316.53
2023-04-01T11:33:27.460Z,93134.53
2023-04-01T11:35:58.320Z,92923.91
2023-04-01T11:38:55.819Z,92717.56
2023-04-01T11:41:30.507Z,92620.16
2023-04-01T11:44:22.386Z,92526.44
2023-04-01T11:47:16.780Z,92485.09
2023-04-01T11:49:46.426Z,92423.88
2023-04-01T11:52:26.449Z,92350.00
2023-04-01T11:54:55.820Z,92265.75
2023-04-01T11:57:52.867Z,92165.72
2023-04-01T12:00:38.156Z,92159.47
2023-04-01T12:03:32.690Z,92218.63
2023-04-01T12:06:11.092Z,92231.25
2023-04-01T12:08:46.434Z,92231.75
2023-04-01T12:11:36.155Z,92271.63
2023-04-01T12:14:20.502Z,92252.78
2023-04-01T12:16:47.036Z,92258.56
2023-04-01T12:19:27.622Z,92289.44
2023-04-01T12:22:35.714Z,92369.78
2023-04-01T12:25:26.251Z,92420.31
2023-04-01T12:27:52.695Z,92435.44
2023-04-01T12:30:24.967Z,92483.09
2023-04-01T12:32:58.393Z,92533.31
2023-04-01T12:35:43.137Z,92528.41
2023-04-01T12:38:47.120Z,92421.31
2023-04-01T12:41:23.115Z,92348.00
2023-04-01T12:44:20.651Z,92306.59
2023-04-01T12:46:53.217Z,92263.16
2023-04-01T12:49:54.096Z,92207.63
2023-04-01T12:53:09.783Z,92126.47
2023-04-01T12:55:40.668Z,92067.06
2023-04-01T12:58:43.984Z,92019.69
2023-04-01T13:01:32.877Z,91969.97
2023-04-01T13:04:24.182Z,91878.59
2023-04-01T13:06:59.878Z,91813.97
2023-04-01T13:10:02.576Z,91724.16
2023-04-01T13:12:46.366Z,91648.00
2023-04-01T13:15:18.892Z,91580.19
2023-04-01T13:17:55.662Z,91510.81
2023-04-01T13:20:31.698Z,91426.19
2023-04-01T13:23:29.518Z,91287.88
2023-04-01T13:26:15.494Z,91107.69
2023-04-01T13:28:56.037Z,91023.53
2023-04-01T13:31:40.343Z,90912.28
2023-04-01T13:34:28.476Z,90883.28
2023-04-01T13:37:14.273Z,90951.06
2023-04-01T13:40:08.832Z,91050.34
2023-04-01T13:42:39.199Z,91114.06
2023-04-01T13:45:21.138Z,91171.97
2023-04-01T13:48:08.945Z,91170.66
2023-04-01T13:50:55.770Z,91159.44
2023-04-01T13:53:40.961Z,91162.34
2023-04-01T13:56:34.913Z,91199.91
2023-04-01T13:59:22.822Z,91218.28
2023-04-01T14:02:14.333Z,91219.91
2023-04-01T14:05:32.485Z,91222.53
2023-04-01T14:08:32.042Z,91227.81
2023-04-01T14:10:58.365Z,91242.44
2023-04-01T14:13:44.342Z,91232.00
2023-04-01T14:16:19.893Z,91140.13
2023-04-01T14:18:55.020Z,91143.81
2023-04-01T14:21:30.853Z,91097.34
2023-04-01T14:24:25.560Z,91070.69
2023-04-01T14:27:07.272Z,91024.97
2023-04-01T14:29:58.088Z,90989.47
2023-04-01T14:32:46.521Z,90954.56
2023-04-01T14:35:38.155Z,90957.06
2023-04-01T14:38:25.988Z,90944.34
2023-04-01T14:41:10.602Z,90966.06
2023-04-01T14:43:54.270Z,90959.78
2023-04-01T14:46:42.269Z,90922.22
2023-04-01T14:49:16.489Z,90941.59
2023-04-01T14:51:42.866Z,90918.94
2023-04-01T14:54:12.375Z,90947.47
2023-04-01T14:56:47.890Z,90937.06
2023-04-01T14:59:17.838Z,90941.25
2023-04-01T15:01:57.796Z,90917.28
2023-04-01T15:04:43.376Z,90908.41
2023-04-01T15:07:19.447Z,90927.50
2023-04-01T15:10:22.169Z,90907.44
2023-04-01T15:13:16.543Z,90929.88
2023-04-01T15:15:58.264Z,90939.03
2023-04-01T15:18:40.579Z,90952.31
2023-04-01T15:21:13.196Z,90941.91
2023-04-01T15:24:08.771Z,90974.78
2023-04-01T15:26:59.121Z,91007.66
2023-04-01T15:30:02.538Z,90994.91
2023-04-01T15:32:47.503Z,91016.00
2023-04-01T15:35:53.175Z,91002.97
2023-04-01T15:38:19.572Z,91020.19
2023-04-01T15:41:07.928Z,91011.31
2023-04-01T15:43:44.928Z,91029.59
2023-04-01T15:46:29.563Z,91038.97
2023-04-01T15:48:56.559Z,91066.63
2023-04-01T15:51:47.614Z,91101.53
2023-04-01T15:54:42.927Z,91051.00
2023-04-01T15:57:09.339Z,91071.84
2023-04-01T15:59:38.496Z,91091.13
2023-04-01T16:02:20.769Z,91131.22
2023-04-01T16:05:09.027Z,91155.72
2023-04-01T16:07:52.177Z,91143.19
2023-04-01T16:10:33.030Z,91152.56
2023-04-01T16:13:21.380Z,91164.53
2023-04-01T16:15:54.950Z,91169.25
2023-04-01T16:18:46.249Z,91209.34
2023-04-01T16:21:40.993Z,91264.53
2023-04-01T16:24:17.401Z,91256.75
2023-04-01T16:26:58.988Z,91333.78
2023-04-01T16:29:31.036Z,91368.16
2023-04-01T16:32:20.185Z,91428.00
2023-04-01T16:35:12.621Z,91502.97
2023-04-01T16:38:24.359Z,91523.81
2023-04-01T16:40:59.743Z,91570.88
2023-04-01T16:43:29.689Z,91583.06
2023-04-01T16:46:27.277Z,91567.44
2023-04-01T16:49:12.046Z,91565.88
2023-04-01T16:51:57.896Z,91596.03
2023-04-01T16:54:44.773Z,91612.63
2023-04-01T16:57:11.277Z,91641.69
2023-04-01T16:59:38.588Z,91656.22
2023-04-01T17:02:08.115Z,91663.00
2023-04-01T17:05:10.728Z,91637.06
2023-04-01T17:08:04.220Z,91636.44
2023-04-01T17:10:49.210Z,91650.91
2023-04-01T17:13:26.279Z,91654.00
2023-04-01T17:15:52.853Z,91664.34
2023-04-01T17:18:45.500Z,91664.78
2023-04-01T17:21:18.282Z,91665.56
2023-04-01T17:23:52.016Z,91648.91
2023-04-01T17:26:30.558Z,91647.53
2023-04-01T17:29:15.276Z,91655.75
2023-04-01T17:31:52.569Z,91676.94
2023-04-01T17:34:43.392Z,91676.41
2023-04-01T17:37:29.998Z,91700.50
2023-04-01T17:40:21.374Z,91698.19
2023-04-01T17:42:57.123Z,91709.56
2023-04-01T17:45:41.782Z,91715.22
2023-04-01T17:48:36.311Z,91739.56
2023-04-01T17:51:02.683Z,91740.13
2023-04-01T17:53:34.959Z,91759.81
2023-04-01T17:56:09.877Z,91777.91
2023-04-01T17:58:48.254Z,91773.25
2023-04-01T18:01:36.122Z,91802.34
2023-04-01T18:04:24.238Z,91822.03
2023-04-01T18:07:03.042Z,91859.81
2023-04-01T18:09:40.345Z,91868.72
2023-04-01T18:12:20.317Z,91900.72
2023-04-01T18:14:52.730Z,91908.63
2023-04-01T18:17:27.552Z,91913.25
2023-04-01T18:20:18.092Z,91913.81
2023-04-01T18:22:46.999Z,91932.38
2023-04-01T18:25:21.183Z,91954.53
2023-04-01T18:27:50.530Z,91963.09
2023-04-01T18:30:28.901Z,91977.34
2023-04-01T18:33:02.107Z,91992.59
2023-04-01T18:35:29.340Z,92009.88
2023-04-01T18:38:30.224Z,92022.31
2023-04-01T18:41:34.272Z,92036.75
2023-04-01T18:44:28.728Z,92044.00
2023-04-01T18:47:23.264Z,92066.25
2023-04-01T18:50:14.944Z,92046.34
2023-04-01T18:52:43.760Z,92087.69
2023-04-01T18:55:30.402Z,92106.06
2023-04-01T18:58:19.888Z,92103.72
2023-04-01T19:01:18.796Z,92125.38
2023-04-01T19:04:09.348Z,92136.09
2023-04-01T19:06:42.236Z,92147.72
2023-04-01T19:09:24.887Z,92182.56
2023-04-01T19:11:55.720Z,92190.50
2023-04-01T19:14:50.245Z,92248.25
2023-04-01T19:17:22.725Z,92277.44
2023-04-01T19:19:56.978Z,92283.00
2023-04-01T19:22:32.608Z,92321.16
2023-04-01T19:25:17.970Z,92341.78
2023-04-01T19:27:54.359Z,92357.34
2023-04-01T19:30:30.364Z,92375.53
2023-04-01T19:33:08.835Z,92396.28
2023-04-01T19:35:47.253Z,92422.50
2023-04-01T19:38:40.074Z,92441.88
2023-04-01T19:41:16.969Z,92463.28
2023-04-01T19:43:46.196Z,92489.66
2023-04-01T19:46:45.988Z,92496.41
2023-04-01T19:49:43.132Z,92542.78
2023-04-01T19:52:18.492Z,92569.16
2023-04-01T19:55:11.098Z,92597.50
2023-04-01T19:58:02.002Z,92637.63
2023-04-01T20:00:35.710Z,92663.75
2023-04-01T20:03:34.685Z,92682.91
2023-04-01T20:06:22.884Z,92710.25
2023-04-01T20:08:55.983Z,92742.78
2023-04-01T20:11:59.981Z,92750.38
2023-04-01T20:14:58.929Z,92803.88
2023-04-01T20:17:48.901Z,92815.44
2023-04-01T20:20:18.773Z,92842.97
2023-04-01T20:22:45.354Z,92853.31
2023-04-01T20:25:24.973Z,92891.81
2023-04-01T20:28:07.543Z,92914.72
2023-04-01T20:30:49.022Z,92933.28
2023-04-01T20:33:37.110Z,92938.06
2023-04-01T20:36:11.289Z,92984.69
2023-04-01T20:39:08.813Z,93006.03
2023-04-01T20:41:53.732Z,93024.38
2023-04-01T20:44:26.602Z,93046.69
2023-04-01T20:46:59.071Z,93065.81
2023-04-01T20:49:36.205Z,93102.06
2023-04-01T20:52:14.663Z,93114.41
2023-04-01T20:54:42.345Z,93128.34
2023-04-01T20:57:38.257Z,93149.06
2023-04-01T21:00:42.453Z,93166.22
2023-04-01T21:03:25.891Z,93191.66
2023-04-01T21:06:11.093Z,93227.91
2023-04-01T21:08:41.473Z,93265.31
2023-04-01T21:11:39.765Z,93281.25
2023-04-01T21:14:06.279Z,93287.66
2023-04-01T21:16:45.496Z,93315.91
2023-04-01T21:19:53.063Z,93313.81
2023-04-01T21:22:44.643Z,93327.13
2023-04-01T21:25:33.885Z,93365.72
2023-04-01T21:28:10.011Z,93412.97
2023-04-01T21:30:39.691Z,93458.72
2023-04-01T21:33:31.470Z,93492.06
2023-04-01T21:35:57.896Z,93527.69
2023-04-01T21:38:36.510Z,93564.13
2023-04-01T21:41:51.450Z,93602.25
2023-04-01T21:44:19.686Z,93608.81
2023-04-01T21:46:49.021Z,93647.81
2023-04-01T21:49:34.424Z,93699.75
2023-04-01T21:52:14.272Z,93707.91
2023-04-01T21:54:53.330Z,93733.81
2023-04-01T21:57:35.889Z,93745.63
2023-04-01T22:00:16.953Z,93784.47
2023-04-01T22:03:26.783Z,93832.78
2023-04-01T22:06:28.451Z,93862.25
2023-04-01T22:09:04.246Z,93885.91
2023-04-01T22:11:55.386Z,93909.88
2023-04-01T22:14:46.984Z,93933.84
2023-04-01T22:17:52.972Z,93942.28
2023-04-01T22:20:22.292Z,93950.66
2023-04-01T22:23:10.588Z,93970.44
2023-04-01T22:25:37.104Z,93968.31
2023-04-01T22:28:55.952Z,93982.72
2023-04-01T22:31:32.936Z,93990.66
2023-04-01T22:34:20.636Z,94013.97
2023-04-01T22:36:56.027Z,94041.00
2023-04-01T22:39:57.557Z,94083.25
2023-04-01T22:42:30.809Z,94109.81
2023-04-01T22:45:07.286Z,94146.53
2023-04-01T22:48:02.181Z,94174.69
2023-04-01T22:50:40.242Z,94209.13
2023-04-01T22:53:06.633Z,94246.22
2023-04-01T22:55:34.747Z,94289.88
2023-04-01T22:58:04.414Z,94319.00
2023-04-01T23:00:41.688Z,94345.41
2023-04-01T23:03:08.221Z,94360.16
2023-04-01T23:05:36.678Z,94388.94
2023-04-01T23:08:40.298Z,94420.34
2023-04-01T23:11:34.080Z,94460.75
2023-04-01T23:14:10.209Z,94475.66
2023-04-01T23:16:39.930Z,94497.28
2023-04-01T23:19:45.452Z,94528.97
2023-04-01T23:22:35.293Z,94543.59
2023-04-01T23:25:39.512Z,94594.34
2023-04-01T23:28:45.405Z,94654.84
2023-04-01T23:31:32.273Z,94704.72
2023-04-01T23:34:02.511Z,94763.88
2023-04-01T23:36:29.536Z,94805.59
2023-04-01T23:38:56.103Z,94844.03
2023-04-01T23:41:30.705Z,94864.44
2023-04-01T23:44:09.835Z,94902.22
2023-04-01T23:46:36.593Z,94932.59
2023-04-01T23:49:03.496Z,94951.41
2023-04-01T23:51:37.507Z,94983.81
2023-04-01T23:54:23.761Z,95019.25
2023-04-01T23:56:53.022Z,95047.03
2023-04-01T23:59:31.312Z,95061.47
